sensor_id;sensor_type;location;lat;lon;timestamp;P1;durP1;ratioP1;P2;durP2;ratioP2
20369;SDS011;10344;47.592;9.600;2024-01-30T00:02:18;13.85;;;9.93;;
20369;SDS011;10344;47.592;9.600;2024-01-30T00:04:44;10.98;;;8.40;;
20369;SDS011;10344;47.592;9.600;2024-01-30T00:07:09;12.57;;;9.10;;
20369;SDS011;10344;47.592;9.600;2024-01-30T00:09:35;13.15;;;9.48;;
20369;SDS011;10344;47.592;9.600;2024-01-30T00:12:04;13.88;;;9.20;;
20369;SDS011;10344;47.592;9.600;2024-01-30T00:14:29;11.50;;;8.73;;
20369;SDS011;10344;47.592;9.600;2024-01-30T00:16:55;12.50;;;9.07;;
20369;SDS011;10344;47.592;9.600;2024-01-30T00:19:21;11.80;;;9.02;;
20369;SDS011;10344;47.592;9.600;2024-01-30T00:21:47;13.13;;;8.63;;
20369;SDS011;10344;47.592;9.600;2024-01-30T00:24:13;12.98;;;8.60;;
20369;SDS011;10344;47.592;9.600;2024-01-30T00:26:41;11.18;;;8.15;;
20369;SDS011;10344;47.592;9.600;2024-01-30T00:29:06;10.05;;;7.90;;
20369;SDS011;10344;47.592;9.600;2024-01-30T00:31:32;17.50;;;9.03;;
20369;SDS011;10344;47.592;9.600;2024-01-30T00:34:00;10.70;;;8.25;;
20369;SDS011;10344;47.592;9.600;2024-01-30T00:36:25;10.43;;;8.05;;
20369;SDS011;10344;47.592;9.600;2024-01-30T00:38:51;11.30;;;8.63;;
20369;SDS011;10344;47.592;9.600;2024-01-30T00:41:17;11.30;;;7.97;;
20369;SDS011;10344;47.592;9.600;2024-01-30T00:43:44;10.70;;;7.78;;
20369;SDS011;10344;47.592;9.600;2024-01-30T00:46:09;10.65;;;8.07;;
20369;SDS011;10344;47.592;9.600;2024-01-30T00:48:35;10.10;;;7.38;;
20369;SDS011;10344;47.592;9.600;2024-01-30T00:51:01;9.30;;;7.40;;
20369;SDS011;10344;47.592;9.600;2024-01-30T00:53:26;10.15;;;7.85;;
20369;SDS011;10344;47.592;9.600;2024-01-30T00:55:52;9.73;;;7.13;;
20369;SDS011;10344;47.592;9.600;2024-01-30T00:58:20;9.98;;;7.22;;
20369;SDS011;10344;47.592;9.600;2024-01-30T01:00:46;9.93;;;8.03;;
20369;SDS011;10344;47.592;9.600;2024-01-30T01:03:11;11.23;;;7.57;;
20369;SDS011;10344;47.592;9.600;2024-01-30T01:05:38;11.60;;;7.80;;
20369;SDS011;10344;47.592;9.600;2024-01-30T01:08:04;11.57;;;7.20;;
20369;SDS011;10344;47.592;9.600;2024-01-30T01:10:30;11.45;;;7.85;;
20369;SDS011;10344;47.592;9.600;2024-01-30T01:12:55;10.87;;;7.80;;
20369;SDS011;10344;47.592;9.600;2024-01-30T01:15:23;9.90;;;7.35;;
20369;SDS011;10344;47.592;9.600;2024-01-30T01:17:49;14.70;;;8.13;;
20369;SDS011;10344;47.592;9.600;2024-01-30T01:20:15;11.47;;;8.00;;
20369;SDS011;10344;47.592;9.600;2024-01-30T01:22:41;12.45;;;7.78;;
20369;SDS011;10344;47.592;9.600;2024-01-30T01:25:06;14.90;;;8.03;;
20369;SDS011;10344;47.592;9.600;2024-01-30T01:27:33;12.25;;;7.47;;
20369;SDS011;10344;47.592;9.600;2024-01-30T01:29:59;12.18;;;7.65;;
20369;SDS011;10344;47.592;9.600;2024-01-30T01:32:29;11.88;;;7.82;;
20369;SDS011;10344;47.592;9.600;2024-01-30T01:34:55;8.30;;;7.30;;
20369;SDS011;10344;47.592;9.600;2024-01-30T01:37:21;11.50;;;7.47;;
20369;SDS011;10344;47.592;9.600;2024-01-30T01:39:47;9.77;;;7.40;;
20369;SDS011;10344;47.592;9.600;2024-01-30T01:42:13;15.80;;;8.10;;
20369;SDS011;10344;47.592;9.600;2024-01-30T01:44:41;13.13;;;7.68;;
20369;SDS011;10344;47.592;9.600;2024-01-30T01:47:06;12.45;;;8.02;;
20369;SDS011;10344;47.592;9.600;2024-01-30T01:49:32;12.07;;;7.87;;
20369;SDS011;10344;47.592;9.600;2024-01-30T01:51:58;11.55;;;7.38;;
20369;SDS011;10344;47.592;9.600;2024-01-30T01:54:24;12.27;;;7.55;;
20369;SDS011;10344;47.592;9.600;2024-01-30T01:56:51;10.80;;;6.93;;
20369;SDS011;10344;47.592;9.600;2024-01-30T01:59:18;10.63;;;7.10;;
20369;SDS011;10344;47.592;9.600;2024-01-30T02:01:45;9.15;;;7.50;;
20369;SDS011;10344;47.592;9.600;2024-01-30T02:04:14;11.10;;;7.60;;
20369;SDS011;10344;47.592;9.600;2024-01-30T02:06:43;13.88;;;7.95;;
20369;SDS011;10344;47.592;9.600;2024-01-30T02:09:09;10.63;;;7.20;;
20369;SDS011;10344;47.592;9.600;2024-01-30T02:11:34;12.87;;;7.50;;
20369;SDS011;10344;47.592;9.600;2024-01-30T02:14:03;8.60;;;7.05;;
20369;SDS011;10344;47.592;9.600;2024-01-30T02:16:29;8.63;;;7.05;;
20369;SDS011;10344;47.592;9.600;2024-01-30T02:18:55;12.70;;;7.72;;
20369;SDS011;10344;47.592;9.600;2024-01-30T02:21:20;8.68;;;6.63;;
20369;SDS011;10344;47.592;9.600;2024-01-30T02:23:48;10.90;;;6.90;;
20369;SDS011;10344;47.592;9.600;2024-01-30T02:26:15;9.45;;;6.97;;
20369;SDS011;10344;47.592;9.600;2024-01-30T02:28:41;9.80;;;6.60;;
20369;SDS011;10344;47.592;9.600;2024-01-30T02:31:06;10.10;;;7.30;;
20369;SDS011;10344;47.592;9.600;2024-01-30T02:33:32;9.63;;;7.20;;
20369;SDS011;10344;47.592;9.600;2024-01-30T02:35:58;8.35;;;6.90;;
20369;SDS011;10344;47.592;9.600;2024-01-30T02:38:24;10.27;;;6.77;;
20369;SDS011;10344;47.592;9.600;2024-01-30T02:40:51;9.77;;;7.40;;
20369;SDS011;10344;47.592;9.600;2024-01-30T02:43:17;10.55;;;7.10;;
20369;SDS011;10344;47.592;9.600;2024-01-30T02:45:43;11.53;;;6.87;;
20369;SDS011;10344;47.592;9.600;2024-01-30T02:48:09;13.95;;;7.85;;
20369;SDS011;10344;47.592;9.600;2024-01-30T02:50:34;8.03;;;6.73;;
20369;SDS011;10344;47.592;9.600;2024-01-30T02:53:00;10.35;;;7.15;;
20369;SDS011;10344;47.592;9.600;2024-01-30T02:55:28;7.97;;;6.83;;
20369;SDS011;10344;47.592;9.600;2024-01-30T02:57:56;7.95;;;6.55;;
20369;SDS011;10344;47.592;9.600;2024-01-30T03:00:21;9.43;;;6.90;;
20369;SDS011;10344;47.592;9.600;2024-01-30T03:02:47;10.70;;;7.28;;
20369;SDS011;10344;47.592;9.600;2024-01-30T03:05:15;8.13;;;6.57;;
20369;SDS011;10344;47.592;9.600;2024-01-30T03:07:40;8.18;;;6.53;;
20369;SDS011;10344;47.592;9.600;2024-01-30T03:10:06;7.93;;;6.57;;
20369;SDS011;10344;47.592;9.600;2024-01-30T03:12:32;8.75;;;7.03;;
20369;SDS011;10344;47.592;9.600;2024-01-30T03:14:58;8.88;;;7.00;;
20369;SDS011;10344;47.592;9.600;2024-01-30T03:17:23;9.00;;;7.20;;
20369;SDS011;10344;47.592;9.600;2024-01-30T03:19:51;9.48;;;6.78;;
20369;SDS011;10344;47.592;9.600;2024-01-30T03:22:17;10.95;;;6.90;;
20369;SDS011;10344;47.592;9.600;2024-01-30T03:24:45;11.15;;;7.30;;
20369;SDS011;10344;47.592;9.600;2024-01-30T03:27:10;9.68;;;7.35;;
20369;SDS011;10344;47.592;9.600;2024-01-30T03:29:36;8.83;;;6.73;;
20369;SDS011;10344;47.592;9.600;2024-01-30T03:32:02;10.55;;;7.60;;
20369;SDS011;10344;47.592;9.600;2024-01-30T03:34:29;9.48;;;7.45;;
20369;SDS011;10344;47.592;9.600;2024-01-30T03:36:54;10.57;;;7.25;;
20369;SDS011;10344;47.592;9.600;2024-01-30T03:39:20;10.50;;;8.23;;
20369;SDS011;10344;47.592;9.600;2024-01-30T03:41:48;8.75;;;7.10;;
20369;SDS011;10344;47.592;9.600;2024-01-30T03:44:13;12.07;;;7.33;;
20369;SDS011;10344;47.592;9.600;2024-01-30T03:46:39;9.18;;;6.88;;
20369;SDS011;10344;47.592;9.600;2024-01-30T03:49:04;8.85;;;7.03;;
20369;SDS011;10344;47.592;9.600;2024-01-30T03:51:30;12.73;;;7.47;;
20369;SDS011;10344;47.592;9.600;2024-01-30T03:53:55;11.15;;;7.13;;
20369;SDS011;10344;47.592;9.600;2024-01-30T03:56:21;10.87;;;7.70;;
20369;SDS011;10344;47.592;9.600;2024-01-30T03:58:47;11.15;;;7.43;;
20369;SDS011;10344;47.592;9.600;2024-01-30T04:01:13;10.55;;;7.85;;
20369;SDS011;10344;47.592;9.600;2024-01-30T04:03:41;10.57;;;7.63;;
20369;SDS011;10344;47.592;9.600;2024-01-30T04:06:10;9.68;;;7.97;;
20369;SDS011;10344;47.592;9.600;2024-01-30T04:08:35;9.70;;;7.83;;
20369;SDS011;10344;47.592;9.600;2024-01-30T04:11:04;10.00;;;7.72;;
20369;SDS011;10344;47.592;9.600;2024-01-30T04:13:31;12.13;;;7.78;;
20369;SDS011;10344;47.592;9.600;2024-01-30T04:15:58;9.43;;;7.77;;
20369;SDS011;10344;47.592;9.600;2024-01-30T04:18:25;11.25;;;8.45;;
20369;SDS011;10344;47.592;9.600;2024-01-30T04:20:50;10.55;;;7.80;;
20369;SDS011;10344;47.592;9.600;2024-01-30T04:23:16;11.07;;;8.07;;
20369;SDS011;10344;47.592;9.600;2024-01-30T04:25:41;10.57;;;7.93;;
20369;SDS011;10344;47.592;9.600;2024-01-30T04:28:09;11.02;;;8.05;;
20369;SDS011;10344;47.592;9.600;2024-01-30T04:30:37;11.77;;;8.77;;
20369;SDS011;10344;47.592;9.600;2024-01-30T04:33:03;10.27;;;8.07;;
20369;SDS011;10344;47.592;9.600;2024-01-30T04:35:29;13.43;;;8.90;;
20369;SDS011;10344;47.592;9.600;2024-01-30T04:37:56;10.40;;;8.55;;
20369;SDS011;10344;47.592;9.600;2024-01-30T04:40:22;13.33;;;8.70;;
20369;SDS011;10344;47.592;9.600;2024-01-30T04:42:48;12.65;;;9.05;;
20369;SDS011;10344;47.592;9.600;2024-01-30T04:45:13;12.80;;;9.20;;
20369;SDS011;10344;47.592;9.600;2024-01-30T04:47:41;13.02;;;9.30;;
20369;SDS011;10344;47.592;9.600;2024-01-30T04:50:11;16.25;;;10.27;;
20369;SDS011;10344;47.592;9.600;2024-01-30T04:52:36;14.97;;;10.40;;
20369;SDS011;10344;47.592;9.600;2024-01-30T04:55:04;16.77;;;10.30;;
20369;SDS011;10344;47.592;9.600;2024-01-30T04:57:30;12.73;;;9.48;;
20369;SDS011;10344;47.592;9.600;2024-01-30T05:00:01;14.20;;;10.13;;
20369;SDS011;10344;47.592;9.600;2024-01-30T05:02:28;13.95;;;10.05;;
20369;SDS011;10344;47.592;9.600;2024-01-30T05:04:54;14.30;;;9.13;;
20369;SDS011;10344;47.592;9.600;2024-01-30T05:07:22;12.70;;;9.43;;
20369;SDS011;10344;47.592;9.600;2024-01-30T05:09:49;14.57;;;9.07;;
20369;SDS011;10344;47.592;9.600;2024-01-30T05:12:15;13.40;;;8.60;;
20369;SDS011;10344;47.592;9.600;2024-01-30T05:14:43;11.23;;;8.33;;
20369;SDS011;10344;47.592;9.600;2024-01-30T05:17:09;11.18;;;8.50;;
20369;SDS011;10344;47.592;9.600;2024-01-30T05:19:37;12.02;;;8.68;;
20369;SDS011;10344;47.592;9.600;2024-01-30T05:22:03;15.27;;;9.52;;
20369;SDS011;10344;47.592;9.600;2024-01-30T05:24:31;14.48;;;8.93;;
20369;SDS011;10344;47.592;9.600;2024-01-30T05:26:57;11.70;;;8.80;;
20369;SDS011;10344;47.592;9.600;2024-01-30T05:29:22;13.20;;;9.18;;
20369;SDS011;10344;47.592;9.600;2024-01-30T05:31:48;12.13;;;8.40;;
20369;SDS011;10344;47.592;9.600;2024-01-30T05:34:14;11.90;;;8.98;;
20369;SDS011;10344;47.592;9.600;2024-01-30T05:36:42;15.07;;;9.63;;
20369;SDS011;10344;47.592;9.600;2024-01-30T05:39:08;11.27;;;8.48;;
20369;SDS011;10344;47.592;9.600;2024-01-30T05:41:36;11.70;;;8.40;;
20369;SDS011;10344;47.592;9.600;2024-01-30T05:44:01;15.87;;;8.70;;
20369;SDS011;10344;47.592;9.600;2024-01-30T05:46:29;12.80;;;8.40;;
20369;SDS011;10344;47.592;9.600;2024-01-30T05:48:55;12.23;;;9.02;;
20369;SDS011;10344;47.592;9.600;2024-01-30T05:51:23;11.87;;;8.93;;
20369;SDS011;10344;47.592;9.600;2024-01-30T05:53:49;13.68;;;9.18;;
20369;SDS011;10344;47.592;9.600;2024-01-30T05:56:14;12.77;;;9.00;;
20369;SDS011;10344;47.592;9.600;2024-01-30T05:58:40;13.32;;;8.50;;
20369;SDS011;10344;47.592;9.600;2024-01-30T06:01:09;13.43;;;8.60;;
20369;SDS011;10344;47.592;9.600;2024-01-30T06:03:34;12.23;;;8.90;;
20369;SDS011;10344;47.592;9.600;2024-01-30T06:06:00;11.98;;;9.35;;
20369;SDS011;10344;47.592;9.600;2024-01-30T06:08:26;11.98;;;8.48;;
20369;SDS011;10344;47.592;9.600;2024-01-30T06:10:51;11.10;;;8.57;;
20369;SDS011;10344;47.592;9.600;2024-01-30T06:13:17;11.75;;;8.90;;
20369;SDS011;10344;47.592;9.600;2024-01-30T06:15:45;9.18;;;7.65;;
20369;SDS011;10344;47.592;9.600;2024-01-30T06:18:13;12.67;;;8.40;;
20369;SDS011;10344;47.592;9.600;2024-01-30T06:20:39;14.00;;;8.80;;
20369;SDS011;10344;47.592;9.600;2024-01-30T06:23:06;13.07;;;8.77;;
20369;SDS011;10344;47.592;9.600;2024-01-30T06:25:32;9.67;;;7.87;;
20369;SDS011;10344;47.592;9.600;2024-01-30T06:28:00;10.10;;;8.43;;
20369;SDS011;10344;47.592;9.600;2024-01-30T06:30:26;14.93;;;8.63;;
20369;SDS011;10344;47.592;9.600;2024-01-30T06:32:51;14.70;;;8.65;;
20369;SDS011;10344;47.592;9.600;2024-01-30T06:35:17;12.37;;;8.83;;
20369;SDS011;10344;47.592;9.600;2024-01-30T06:37:43;11.27;;;8.75;;
20369;SDS011;10344;47.592;9.600;2024-01-30T06:40:09;12.10;;;8.90;;
20369;SDS011;10344;47.592;9.600;2024-01-30T06:42:35;15.02;;;9.50;;
20369;SDS011;10344;47.592;9.600;2024-01-30T06:45:00;11.75;;;8.80;;
20369;SDS011;10344;47.592;9.600;2024-01-30T06:47:28;14.55;;;9.38;;
20369;SDS011;10344;47.592;9.600;2024-01-30T06:49:56;12.40;;;9.25;;
20369;SDS011;10344;47.592;9.600;2024-01-30T06:52:21;12.47;;;8.77;;
20369;SDS011;10344;47.592;9.600;2024-01-30T06:54:47;15.67;;;10.07;;
20369;SDS011;10344;47.592;9.600;2024-01-30T06:57:12;13.57;;;9.48;;
20369;SDS011;10344;47.592;9.600;2024-01-30T06:59:39;13.20;;;9.15;;
20369;SDS011;10344;47.592;9.600;2024-01-30T07:02:09;12.38;;;9.45;;
20369;SDS011;10344;47.592;9.600;2024-01-30T07:04:35;12.85;;;8.70;;
20369;SDS011;10344;47.592;9.600;2024-01-30T07:07:02;10.43;;;8.00;;
20369;SDS011;10344;47.592;9.600;2024-01-30T07:09:30;11.43;;;8.27;;
20369;SDS011;10344;47.592;9.600;2024-01-30T07:11:55;9.38;;;7.50;;
20369;SDS011;10344;47.592;9.600;2024-01-30T07:14:23;9.25;;;7.38;;
20369;SDS011;10344;47.592;9.600;2024-01-30T07:16:49;11.85;;;8.73;;
20369;SDS011;10344;47.592;9.600;2024-01-30T07:19:15;12.00;;;8.27;;
20369;SDS011;10344;47.592;9.600;2024-01-30T07:21:43;12.30;;;8.82;;
20369;SDS011;10344;47.592;9.600;2024-01-30T07:24:09;9.98;;;7.75;;
20369;SDS011;10344;47.592;9.600;2024-01-30T07:26:34;11.23;;;8.70;;
20369;SDS011;10344;47.592;9.600;2024-01-30T07:29:00;12.50;;;8.83;;
20369;SDS011;10344;47.592;9.600;2024-01-30T07:31:26;11.80;;;9.05;;
20369;SDS011;10344;47.592;9.600;2024-01-30T07:33:52;10.93;;;8.55;;
20369;SDS011;10344;47.592;9.600;2024-01-30T07:36:19;11.05;;;8.45;;
20369;SDS011;10344;47.592;9.600;2024-01-30T07:38:44;12.45;;;8.82;;
20369;SDS011;10344;47.592;9.600;2024-01-30T07:41:10;15.60;;;9.77;;
20369;SDS011;10344;47.592;9.600;2024-01-30T07:43:38;12.07;;;8.63;;
20369;SDS011;10344;47.592;9.600;2024-01-30T07:46:04;10.52;;;8.07;;
20369;SDS011;10344;47.592;9.600;2024-01-30T07:48:31;12.60;;;9.25;;
20369;SDS011;10344;47.592;9.600;2024-01-30T07:50:59;12.82;;;8.70;;
20369;SDS011;10344;47.592;9.600;2024-01-30T07:53:25;11.27;;;8.07;;
20369;SDS011;10344;47.592;9.600;2024-01-30T07:55:50;13.07;;;9.70;;
20369;SDS011;10344;47.592;9.600;2024-01-30T07:58:17;11.73;;;8.38;;
20369;SDS011;10344;47.592;9.600;2024-01-30T08:00:42;12.15;;;9.02;;
20369;SDS011;10344;47.592;9.600;2024-01-30T08:03:08;12.43;;;8.97;;
20369;SDS011;10344;47.592;9.600;2024-01-30T08:05:33;12.40;;;9.10;;
20369;SDS011;10344;47.592;9.600;2024-01-30T08:07:59;14.57;;;9.02;;
20369;SDS011;10344;47.592;9.600;2024-01-30T08:10:25;11.27;;;8.77;;
20369;SDS011;10344;47.592;9.600;2024-01-30T08:12:50;13.53;;;9.37;;
20369;SDS011;10344;47.592;9.600;2024-01-30T08:15:16;16.02;;;9.70;;
20369;SDS011;10344;47.592;9.600;2024-01-30T08:17:41;12.17;;;8.77;;
20369;SDS011;10344;47.592;9.600;2024-01-30T08:20:09;13.27;;;9.73;;
20369;SDS011;10344;47.592;9.600;2024-01-30T08:22:38;13.77;;;9.45;;
20369;SDS011;10344;47.592;9.600;2024-01-30T08:25:06;10.05;;;8.40;;
20369;SDS011;10344;47.592;9.600;2024-01-30T08:27:33;11.65;;;9.10;;
20369;SDS011;10344;47.592;9.600;2024-01-30T08:30:00;10.88;;;8.40;;
20369;SDS011;10344;47.592;9.600;2024-01-30T08:32:26;11.23;;;8.07;;
20369;SDS011;10344;47.592;9.600;2024-01-30T08:34:54;11.90;;;8.50;;
20369;SDS011;10344;47.592;9.600;2024-01-30T08:37:19;11.75;;;9.05;;
20369;SDS011;10344;47.592;9.600;2024-01-30T08:39:45;11.52;;;8.80;;
20369;SDS011;10344;47.592;9.600;2024-01-30T08:42:13;11.97;;;8.60;;
20369;SDS011;10344;47.592;9.600;2024-01-30T08:44:38;12.50;;;9.35;;
20369;SDS011;10344;47.592;9.600;2024-01-30T08:47:04;11.83;;;8.97;;
20369;SDS011;10344;47.592;9.600;2024-01-30T08:49:30;12.07;;;9.35;;
20369;SDS011;10344;47.592;9.600;2024-01-30T08:51:56;13.13;;;9.35;;
20369;SDS011;10344;47.592;9.600;2024-01-30T08:54:22;12.33;;;9.23;;
20369;SDS011;10344;47.592;9.600;2024-01-30T08:56:48;12.43;;;9.27;;
20369;SDS011;10344;47.592;9.600;2024-01-30T08:59:14;14.13;;;8.93;;
20369;SDS011;10344;47.592;9.600;2024-01-30T09:01:40;12.80;;;9.15;;
20369;SDS011;10344;47.592;9.600;2024-01-30T09:04:06;13.47;;;9.53;;
20369;SDS011;10344;47.592;9.600;2024-01-30T09:06:31;12.23;;;8.68;;
20369;SDS011;10344;47.592;9.600;2024-01-30T09:08:59;12.93;;;9.00;;
20369;SDS011;10344;47.592;9.600;2024-01-30T09:11:25;13.23;;;9.32;;
20369;SDS011;10344;47.592;9.600;2024-01-30T09:13:50;15.55;;;10.32;;
20369;SDS011;10344;47.592;9.600;2024-01-30T09:16:16;14.60;;;10.13;;
20369;SDS011;10344;47.592;9.600;2024-01-30T09:18:42;12.98;;;9.05;;
20369;SDS011;10344;47.592;9.600;2024-01-30T09:21:07;14.30;;;9.87;;
20369;SDS011;10344;47.592;9.600;2024-01-30T09:23:33;14.45;;;9.95;;
20369;SDS011;10344;47.592;9.600;2024-01-30T09:26:00;12.88;;;9.20;;
20369;SDS011;10344;47.592;9.600;2024-01-30T09:28:25;13.33;;;9.33;;
20369;SDS011;10344;47.592;9.600;2024-01-30T09:30:51;13.55;;;9.70;;
20369;SDS011;10344;47.592;9.600;2024-01-30T09:33:19;12.50;;;9.02;;
20369;SDS011;10344;47.592;9.600;2024-01-30T09:35:47;14.82;;;9.48;;
20369;SDS011;10344;47.592;9.600;2024-01-30T09:38:13;12.95;;;9.38;;
20369;SDS011;10344;47.592;9.600;2024-01-30T09:40:40;12.80;;;9.67;;
20369;SDS011;10344;47.592;9.600;2024-01-30T09:43:07;12.52;;;9.45;;
20369;SDS011;10344;47.592;9.600;2024-01-30T09:45:32;12.83;;;9.30;;
20369;SDS011;10344;47.592;9.600;2024-01-30T09:48:00;13.20;;;9.85;;
20369;SDS011;10344;47.592;9.600;2024-01-30T09:50:25;13.75;;;10.13;;
20369;SDS011;10344;47.592;9.600;2024-01-30T09:52:52;13.82;;;9.27;;
20369;SDS011;10344;47.592;9.600;2024-01-30T09:55:23;13.23;;;9.80;;
20369;SDS011;10344;47.592;9.600;2024-01-30T09:57:51;12.73;;;9.52;;
20369;SDS011;10344;47.592;9.600;2024-01-30T10:00:19;13.63;;;9.80;;
20369;SDS011;10344;47.592;9.600;2024-01-30T10:02:45;14.23;;;9.88;;
20369;SDS011;10344;47.592;9.600;2024-01-30T10:05:11;13.27;;;9.25;;
20369;SDS011;10344;47.592;9.600;2024-01-30T10:07:49;12.48;;;9.25;;
20369;SDS011;10344;47.592;9.600;2024-01-30T10:10:17;14.77;;;9.30;;
20369;SDS011;10344;47.592;9.600;2024-01-30T10:12:43;14.53;;;9.70;;
20369;SDS011;10344;47.592;9.600;2024-01-30T10:15:09;12.25;;;9.15;;
20369;SDS011;10344;47.592;9.600;2024-01-30T10:17:37;12.50;;;9.07;;
20369;SDS011;10344;47.592;9.600;2024-01-30T10:20:05;12.77;;;8.63;;
20369;SDS011;10344;47.592;9.600;2024-01-30T10:22:32;11.85;;;8.85;;
20369;SDS011;10344;47.592;9.600;2024-01-30T10:24:59;12.85;;;9.23;;
20369;SDS011;10344;47.592;9.600;2024-01-30T10:27:26;12.05;;;8.80;;
20369;SDS011;10344;47.592;9.600;2024-01-30T10:29:54;11.88;;;9.20;;
20369;SDS011;10344;47.592;9.600;2024-01-30T10:32:22;11.38;;;8.80;;
20369;SDS011;10344;47.592;9.600;2024-01-30T10:34:48;12.07;;;9.10;;
20369;SDS011;10344;47.592;9.600;2024-01-30T10:37:15;12.20;;;9.32;;
20369;SDS011;10344;47.592;9.600;2024-01-30T10:39:42;12.65;;;9.73;;
20369;SDS011;10344;47.592;9.600;2024-01-30T10:42:11;13.80;;;9.80;;
20369;SDS011;10344;47.592;9.600;2024-01-30T10:47:34;13.93;;;9.65;;
20369;SDS011;10344;47.592;9.600;2024-01-30T10:50:01;13.35;;;9.13;;
20369;SDS011;10344;47.592;9.600;2024-01-30T10:52:28;12.45;;;9.07;;
20369;SDS011;10344;47.592;9.600;2024-01-30T10:54:55;12.52;;;9.10;;
20369;SDS011;10344;47.592;9.600;2024-01-30T10:57:27;13.43;;;8.93;;
20369;SDS011;10344;47.592;9.600;2024-01-30T10:59:53;10.75;;;8.93;;
20369;SDS011;10344;47.592;9.600;2024-01-30T11:02:22;11.23;;;8.27;;
20369;SDS011;10344;47.592;9.600;2024-01-30T11:04:49;9.27;;;7.40;;
20369;SDS011;10344;47.592;9.600;2024-01-30T11:07:23;11.20;;;8.30;;
20369;SDS011;10344;47.592;9.600;2024-01-30T11:09:52;10.77;;;7.50;;
20369;SDS011;10344;47.592;9.600;2024-01-30T11:12:31;9.45;;;7.20;;
20369;SDS011;10344;47.592;9.600;2024-01-30T11:15:01;10.48;;;8.02;;
20369;SDS011;10344;47.592;9.600;2024-01-30T11:20:10;11.60;;;8.18;;
20369;SDS011;10344;47.592;9.600;2024-01-30T11:22:37;9.30;;;7.60;;
20369;SDS011;10344;47.592;9.600;2024-01-30T11:25:02;9.07;;;7.65;;
20369;SDS011;10344;47.592;9.600;2024-01-30T11:27:30;9.63;;;7.78;;
20369;SDS011;10344;47.592;9.600;2024-01-30T11:30:03;9.50;;;8.00;;
20369;SDS011;10344;47.592;9.600;2024-01-30T11:32:29;9.57;;;7.75;;
20369;SDS011;10344;47.592;9.600;2024-01-30T11:34:57;10.98;;;7.95;;
20369;SDS011;10344;47.592;9.600;2024-01-30T11:37:28;10.23;;;7.78;;
20369;SDS011;10344;47.592;9.600;2024-01-30T11:39:56;10.30;;;8.07;;
20369;SDS011;10344;47.592;9.600;2024-01-30T11:42:23;10.38;;;7.65;;
20369;SDS011;10344;47.592;9.600;2024-01-30T11:44:53;9.27;;;7.45;;
20369;SDS011;10344;47.592;9.600;2024-01-30T11:47:19;10.68;;;8.15;;
20369;SDS011;10344;47.592;9.600;2024-01-30T11:49:44;10.25;;;8.30;;
20369;SDS011;10344;47.592;9.600;2024-01-30T11:52:10;11.47;;;8.67;;
20369;SDS011;10344;47.592;9.600;2024-01-30T11:54:38;9.48;;;8.18;;
20369;SDS011;10344;47.592;9.600;2024-01-30T11:57:04;10.38;;;8.00;;
20369;SDS011;10344;47.592;9.600;2024-01-30T11:59:32;10.18;;;8.32;;
20369;SDS011;10344;47.592;9.600;2024-01-30T12:01:58;9.73;;;8.35;;
20369;SDS011;10344;47.592;9.600;2024-01-30T12:04:29;11.57;;;8.50;;
20369;SDS011;10344;47.592;9.600;2024-01-30T12:06:55;10.65;;;8.40;;
20369;SDS011;10344;47.592;9.600;2024-01-30T12:09:21;8.70;;;7.03;;
20369;SDS011;10344;47.592;9.600;2024-01-30T12:11:49;10.68;;;8.25;;
20369;SDS011;10344;47.592;9.600;2024-01-30T12:14:17;9.82;;;8.18;;
20369;SDS011;10344;47.592;9.600;2024-01-30T12:16:48;10.32;;;8.13;;
20369;SDS011;10344;47.592;9.600;2024-01-30T12:19:22;10.48;;;8.13;;
20369;SDS011;10344;47.592;9.600;2024-01-30T12:21:57;10.73;;;8.40;;
20369;SDS011;10344;47.592;9.600;2024-01-30T12:24:27;11.10;;;8.68;;
20369;SDS011;10344;47.592;9.600;2024-01-30T12:26:58;11.10;;;8.50;;
20369;SDS011;10344;47.592;9.600;2024-01-30T12:29:24;11.35;;;8.75;;
20369;SDS011;10344;47.592;9.600;2024-01-30T12:31:52;12.53;;;8.90;;
20369;SDS011;10344;47.592;9.600;2024-01-30T12:34:19;10.93;;;8.23;;
20369;SDS011;10344;47.592;9.600;2024-01-30T12:36:46;11.03;;;8.17;;
20369;SDS011;10344;47.592;9.600;2024-01-30T12:39:13;9.23;;;7.80;;
20369;SDS011;10344;47.592;9.600;2024-01-30T12:41:40;11.55;;;8.77;;
20369;SDS011;10344;47.592;9.600;2024-01-30T12:44:05;11.57;;;8.68;;
20369;SDS011;10344;47.592;9.600;2024-01-30T12:46:34;11.68;;;8.90;;
20369;SDS011;10344;47.592;9.600;2024-01-30T12:49:00;10.05;;;8.20;;
20369;SDS011;10344;47.592;9.600;2024-01-30T12:51:28;11.23;;;8.55;;
20369;SDS011;10344;47.592;9.600;2024-01-30T12:53:53;12.55;;;8.25;;
20369;SDS011;10344;47.592;9.600;2024-01-30T12:56:22;11.90;;;8.47;;
20369;SDS011;10344;47.592;9.600;2024-01-30T12:58:50;12.05;;;8.75;;
20369;SDS011;10344;47.592;9.600;2024-01-30T13:01:16;10.57;;;8.65;;
20369;SDS011;10344;47.592;9.600;2024-01-30T13:03:41;12.00;;;9.03;;
20369;SDS011;10344;47.592;9.600;2024-01-30T13:06:07;10.45;;;7.85;;
20369;SDS011;10344;47.592;9.600;2024-01-30T13:08:32;10.63;;;8.20;;
20369;SDS011;10344;47.592;9.600;2024-01-30T13:11:00;10.73;;;8.17;;
20369;SDS011;10344;47.592;9.600;2024-01-30T13:13:30;10.80;;;8.27;;
20369;SDS011;10344;47.592;9.600;2024-01-30T13:15:56;10.37;;;8.17;;
20369;SDS011;10344;47.592;9.600;2024-01-30T13:18:22;9.85;;;7.78;;
20369;SDS011;10344;47.592;9.600;2024-01-30T13:20:48;10.35;;;8.18;;
20369;SDS011;10344;47.592;9.600;2024-01-30T13:23:13;9.47;;;8.23;;
20369;SDS011;10344;47.592;9.600;2024-01-30T13:25:39;10.47;;;8.47;;
20369;SDS011;10344;47.592;9.600;2024-01-30T13:28:04;10.95;;;8.30;;
20369;SDS011;10344;47.592;9.600;2024-01-30T13:30:30;10.18;;;7.70;;
20369;SDS011;10344;47.592;9.600;2024-01-30T13:32:56;9.82;;;7.78;;
20369;SDS011;10344;47.592;9.600;2024-01-30T13:35:22;9.97;;;8.10;;
20369;SDS011;10344;47.592;9.600;2024-01-30T13:37:47;10.07;;;7.97;;
20369;SDS011;10344;47.592;9.600;2024-01-30T13:40:13;11.85;;;8.75;;
20369;SDS011;10344;47.592;9.600;2024-01-30T13:42:40;10.38;;;8.32;;
20369;SDS011;10344;47.592;9.600;2024-01-30T13:45:05;11.48;;;9.02;;
20369;SDS011;10344;47.592;9.600;2024-01-30T13:47:31;11.87;;;8.10;;
20369;SDS011;10344;47.592;9.600;2024-01-30T13:49:57;11.00;;;8.63;;
20369;SDS011;10344;47.592;9.600;2024-01-30T13:52:22;10.88;;;8.32;;
20369;SDS011;10344;47.592;9.600;2024-01-30T13:54:48;11.83;;;8.77;;
20369;SDS011;10344;47.592;9.600;2024-01-30T13:57:18;10.90;;;9.00;;
20369;SDS011;10344;47.592;9.600;2024-01-30T13:59:44;10.23;;;8.15;;
20369;SDS011;10344;47.592;9.600;2024-01-30T14:02:10;10.00;;;7.97;;
20369;SDS011;10344;47.592;9.600;2024-01-30T14:04:35;12.17;;;8.60;;
20369;SDS011;10344;47.592;9.600;2024-01-30T14:07:02;10.32;;;8.15;;
20369;SDS011;10344;47.592;9.600;2024-01-30T14:09:28;10.85;;;8.90;;
20369;SDS011;10344;47.592;9.600;2024-01-30T14:11:57;11.10;;;8.23;;
20369;SDS011;10344;47.592;9.600;2024-01-30T14:14:23;9.88;;;7.40;;
20369;SDS011;10344;47.592;9.600;2024-01-30T14:16:49;11.30;;;8.70;;
20369;SDS011;10344;47.592;9.600;2024-01-30T14:19:14;11.35;;;8.65;;
20369;SDS011;10344;47.592;9.600;2024-01-30T14:21:40;12.70;;;9.07;;
20369;SDS011;10344;47.592;9.600;2024-01-30T14:24:06;11.97;;;8.87;;
20369;SDS011;10344;47.592;9.600;2024-01-30T14:26:31;11.80;;;8.73;;
20369;SDS011;10344;47.592;9.600;2024-01-30T14:28:57;11.07;;;8.73;;
20369;SDS011;10344;47.592;9.600;2024-01-30T14:31:23;11.87;;;8.90;;
20369;SDS011;10344;47.592;9.600;2024-01-30T14:33:49;11.00;;;8.88;;
20369;SDS011;10344;47.592;9.600;2024-01-30T14:36:17;10.70;;;8.82;;
20369;SDS011;10344;47.592;9.600;2024-01-30T14:38:42;13.10;;;9.07;;